Latest Weather Observations for Bathurst Airport

IDN60801

Issued at 2:32 pm EDT Sunday 14 February 2016 (issued every 30 minutes, with the page automatically refreshed every 10 minutes)

About weather observations | Map of weather stations | Latest weather observations for NSW | Other Formats
Station Details ID: 063291 Name: BATHURST AIRPORT AWS Lat: -33.41 Lon: 149.65 Height: 744.5 m
Data from the previous 72 hours. | See also: Recent months at Bathurst Airport
Date/Time
EDT
Temp
°C
App
Temp
°C
Dew
Point
Rel
Hum
%
Delta-T
°C
Wind Press
QNH
hPa
Press
MSL
hPa
Rain
since 9 am
mm
Dir
 
Spd
km/h
Gust
km/h
Spd
kts
Gust
kts
14/02:30pm 33.3 28.2 5.8 18 15.3 WSW 22 33 12 18 1011.9 1008.1 0.0
14/02:00pm 33.5 28.6 6.7 19 15.1 WSW 22 32 12 17 1012.1 1008.4 0.0
14/01:30pm 32.2 28.0 8.4 23 13.7 W 20 30 11 16 1012.2 1008.5 0.0
14/01:00pm 33.1 29.0 7.9 21 14.4 WSW 19 30 10 16 1012.5 1008.8 0.0
14/12:30pm 32.0 28.3 10.1 26 12.9 WNW 20 32 11 17 1012.8 1009.1 0.0
14/12:00pm 31.1 28.5 12.0 31 11.6 WNW 17 24 9 13 1013.3 1009.6 0.0
14/11:30am 29.8 28.3 11.8 33 10.8 NW 11 19 6 10 1013.6 1009.9 0.0
14/11:00am 28.8 27.2 12.7 37 9.8 N 13 20 7 11 1013.9 1010.2 0.0
14/10:30am 27.5 25.1 11.5 37 9.5 NNW 15 20 8 11 1014.0 1010.3 0.0
14/10:00am 26.5 25.1 12.2 41 8.5 NNW 11 20 6 11 1014.2 1010.5 0.0
14/09:30am 23.7 24.3 13.0 51 6.4 NNW 2 9 1 5 1014.3 1010.7 0.0
14/09:00am 20.8 21.7 13.0 61 4.6 CALM 0 6 0 3 1014.4 1010.8 0.0
14/08:30am 18.5 18.9 12.5 68 3.5 W 2 7 1 4 1014.4 1010.8 0.0
14/08:00am 16.6 17.6 13.1 80 2.0 CALM 0 0 0 0 1014.3 1010.7 0.0
14/07:30am 15.2 16.3 13.4 89 1.0 CALM 0 0 0 0 1014.2 1010.5 0.0
14/07:00am 12.8 12.6 11.7 93 0.6 S 4 7 2 4 1014.1 1010.4 0.0
14/06:30am 13.8 13.6 11.8 88 1.1 S 4 7 2 4 1013.9 1010.2 0.0
14/06:00am 14.0 13.3 12.0 88 1.1 S 7 9 4 5 1013.4 1009.7 0.0
14/05:30am 14.3 14.9 12.0 86 1.3 CALM 0 2 0 1 1012.9 1009.2 0.0
14/05:00am 14.8 14.5 11.4 80 1.9 SE 4 9 2 5 1012.7 1009.0 0.0
14/04:30am 16.2 17.0 12.6 79 2.1 CALM 0 4 0 2 1012.6 1008.9 0.0
14/04:00am 15.6 16.0 11.2 75 2.4 CALM 0 0 0 0 1012.6 1008.9 0.0
14/03:30am 16.7 16.6 12.0 74 2.7 SE 4 6 2 3 1012.7 1009.0 0.0
14/03:00am 17.1 16.6 12.0 72 2.9 E 6 7 3 4 1012.8 1009.1 0.0
14/02:30am 17.7 18.2 11.5 67 3.5 CALM 0 0 0 0 1012.9 1009.2 0.0
14/02:00am 18.0 17.4 11.6 66 3.6 ENE 6 7 3 4 1013.0 1009.3 0.0
14/01:30am 18.5 17.4 11.8 65 3.8 E 9 9 5 5 1013.3 1009.6 0.0
14/01:00am 18.8 19.5 12.1 65 3.9 CALM 0 0 0 0 1013.5 1009.8 0.0
14/12:30am 19.0 17.9 12.0 64 4.0 NE 9 11 5 6 1013.7 1010.0 0.0
14/12:00am 18.5 17.7 11.6 64 3.9 NNE 7 9 4 5 1013.7 1010.0 0.0
 
Date/Time
EDT
Temp
°C
App
Temp
°C
Dew
Point
Rel
Hum
%
Delta-T
°C
Wind Press
QNH
hPa
Press
MSL
hPa
Rain
since 9 am
mm
Dir
 
Spd
km/h
Gust
km/h
Spd
kts
Gust
kts
13/11:30pm 18.5 17.4 11.8 65 3.8 NE 9 13 5 7 1013.8 1010.1 0.0
13/11:00pm 19.2 18.6 11.7 62 4.3 NNE 6 7 3 4 1013.9 1010.2 0.0
13/10:30pm 20.5 19.0 12.0 58 4.9 NNE 11 13 6 7 1014.0 1010.3 0.0
13/10:00pm 20.1 18.6 11.8 59 4.8 NE 11 15 6 8 1014.0 1010.3 0.0
13/09:30pm 21.8 21.4 11.2 51 6.1 NE 4 13 2 7 1014.0 1010.3 0.0
13/09:00pm 23.8 23.7 9.4 40 8.1 CALM 0 0 0 0 1013.7 1010.0 0.0
13/08:30pm 25.0 24.8 8.9 36 9.0 CALM 0 0 0 0 1013.5 1009.8 0.0
13/08:00pm 26.0 24.3 8.5 33 9.8 WNW 7 9 4 5 1013.3 1009.6 0.0
13/07:30pm 28.5 25.6 8.2 28 11.4 SW 13 15 7 8 1012.9 1009.2 0.0
13/07:00pm 29.9 27.0 8.3 26 12.3 SW 13 19 7 10 1012.8 1009.1 0.0
13/06:30pm 30.8 28.4 8.5 25 12.8 W 11 17 6 9 1012.8 1009.1 0.0
13/06:00pm 30.1 27.2 9.6 28 11.9 NE 15 17 8 9 1012.8 1009.1 0.0
13/05:30pm 29.3 27.9 10.9 32 10.9 NE 9 15 5 8 1013.0 1009.3 0.0
13/05:00pm 29.0 26.6 10.2 31 11.0 ENE 13 17 7 9 1013.2 1009.5 0.0
13/04:30pm 28.3 26.8 10.5 33 10.4 E 9 15 5 8 1013.5 1009.8 0.0
13/04:00pm 28.5 27.3 10.2 32 10.7 NE 7 11 4 6 1013.8 1010.1 0.0
13/03:30pm 28.7 27.3 10.8 33 10.5 WSW 9 20 5 11 1014.1 1010.4 0.0
13/03:00pm 30.0 28.2 11.0 31 11.3 W 11 17 6 9 1014.3 1010.7 0.0
13/02:30pm 31.0 28.5 10.9 29 12.0 NW 15 24 8 13 1014.7 1011.0 0.0
13/02:00pm 30.4 28.2 10.9 30 11.6 NW 13 20 7 11 1015.1 1011.4 0.0
13/01:30pm 30.1 28.0 11.1 31 11.3 N 13 24 7 13 1015.4 1011.7 0.0
13/01:00pm 28.2 25.3 9.5 31 10.7 SSW 15 22 8 12 1015.9 1012.3 0.0
13/12:30pm 27.7 27.3 12.5 39 9.1 ENE 6 11 3 6 1016.3 1012.6 0.0
13/12:00pm 27.3 26.4 12.5 40 8.9 NW 9 15 5 8 1016.7 1013.0 0.0
13/11:30am 26.0 24.6 12.1 42 8.2 N 11 20 6 11 1017.0 1013.4 0.0
13/11:00am 25.7 24.3 12.2 43 8.0 NNW 11 17 6 9 1017.2 1013.6 0.0
13/10:30am 23.2 22.2 12.2 50 6.5 N 9 13 5 7 1017.5 1013.8 0.0
13/10:00am 21.7 22.4 14.6 64 4.3 SSW 4 9 2 5 1017.6 1013.9 0.0
13/09:30am 19.4 20.1 15.5 78 2.4 SW 6 7 3 4 1017.7 1014.0 0.0
13/09:00am 17.7 18.3 15.9 89 1.1 WSW 7 9 4 5 1017.6 1013.9 0.0
13/08:30am 16.7 18.3 15.9 95 0.5 WSW 2 7 1 4 1017.6 1013.9 0.0
13/08:24am 16.5 18.5 16.0 97 0.3 CALM 0 0 0 0 1017.6 1013.9 0.0
13/08:00am 15.7 17.6 15.7 100 0.0 CALM 0 0 0 0 1017.6 1013.9 0.0
13/07:30am 14.5 15.9 14.5 100 0.0 CALM 0 2 0 1 1017.2 1013.6 0.0
13/07:00am 13.0 13.9 13.0 100 0.0 CALM 0 0 0 0 1017.0 1013.4 0.0
13/06:30am 13.1 12.9 12.9 99 0.1 SW 6 9 3 5 1016.9 1013.3 0.0
13/06:18am 14.0 14.9 14.0 100 0.0 SE 2 6 1 3 1016.8 1013.2 0.0
13/06:03am 14.8 15.2 14.8 100 0.0 SE 6 7 3 4 1016.6 1012.9 0.0
13/06:00am 14.9 15.2 14.9 100 0.0 SE 7 7 4 4 1016.5 1012.8 0.0
13/05:30am 14.6 15.3 14.6 100 0.0 E 4 7 2 4 1016.5 1012.8 0.0
13/05:13am 14.5 15.9 14.5 100 0.0 CALM 0 0 0 0 1016.6 1012.9 0.0
13/05:00am 14.4 15.7 14.2 99 0.1 CALM 0 0 0 0 1016.5 1012.8 0.0
13/04:59am 14.5 15.9 14.3 99 0.1 CALM 0 0 0 0 1016.5 1012.8 0.0
13/04:40am 14.4 15.7 14.1 98 0.2 CALM 0 0 0 0 1016.6 1012.9 0.0
13/04:30am 15.0 16.6 14.8 99 0.1 CALM 0 0 0 0 1016.6 1012.9 0.0
13/04:00am 15.1 16.3 14.9 99 0.1 WNW 2 7 1 4 1016.6 1012.9 0.0
13/03:30am 15.5 16.4 15.0 97 0.3 SW 4 6 2 3 1016.6 1012.9 0.0
13/03:00am 15.4 15.7 14.9 97 0.3 SSW 7 7 4 4 1016.8 1013.2 0.0
13/02:30am 15.1 16.5 14.3 95 0.5 CALM 0 4 0 2 1016.9 1013.3 0.0
13/02:00am 15.9 16.3 14.8 93 0.7 NE 6 9 3 5 1016.8 1013.2 0.0
13/01:30am 16.0 15.7 14.5 91 0.9 NE 9 11 5 6 1017.0 1013.4 0.0
13/01:00am 17.2 17.0 14.8 86 1.4 ENE 9 13 5 7 1017.0 1013.4 0.0
13/12:30am 17.7 17.8 14.4 81 2.0 ENE 7 9 4 5 1017.2 1013.6 0.0
13/12:00am 17.7 18.0 14.4 81 2.0 E 6 9 3 5 1017.3 1013.7 0.0
 
Date/Time
EDT
Temp
°C
App
Temp
°C
Dew
Point
Rel
Hum
%
Delta-T
°C
Wind Press
QNH
hPa
Press
MSL
hPa
Rain
since 9 am
mm
Dir
 
Spd
km/h
Gust
km/h
Spd
kts
Gust
kts
12/11:30pm 18.3 17.8 13.8 75 2.7 ENE 9 11 5 6 1017.2 1013.6 0.0
12/11:00pm 18.7 18.8 14.0 74 2.8 E 6 7 3 4 1017.6 1013.9 0.0
12/10:30pm 19.0 19.5 14.1 73 2.9 ENE 4 7 2 4 1017.7 1014.0 0.0
12/10:00pm 19.1 19.6 13.9 72 3.1 S 4 7 2 4 1017.7 1014.0 0.0
12/09:30pm 18.8 19.9 13.4 71 3.2 CALM 0 6 0 3 1017.6 1013.9 0.0
12/09:00pm 18.9 18.9 13.7 72 3.1 NNE 6 9 3 5 1017.3 1013.7 0.0
12/08:30pm 19.6 20.6 14.4 72 3.1 SW 2 7 1 4 1017.2 1013.6 0.0
12/08:00pm 20.3 19.1 14.0 67 3.8 NNE 13 20 7 11 1017.1 1013.5 0.0
12/07:30pm 22.1 20.5 14.0 60 4.9 NE 15 20 8 11 1016.7 1013.0 0.0
12/07:00pm 23.2 21.2 13.9 56 5.6 ENE 17 20 9 11 1016.3 1012.6 0.0
12/06:30pm 22.1 20.2 14.2 61 4.8 NNE 17 20 9 11 1016.3 1012.6 0.0
12/06:00pm 22.0 18.5 13.4 58 5.1 NNE 24 30 13 16 1016.4 1012.7 0.0
12/05:30pm 22.5 18.8 13.8 58 5.2 NE 26 33 14 18 1016.4 1012.7 0.0
12/05:00pm 23.1 18.7 14.1 57 5.4 ENE 30 37 16 20 1016.2 1012.5 0.0
12/04:30pm 27.0 23.7 14.1 45 7.9 ESE 24 37 13 20 1015.5 1011.8 0.0
12/04:00pm 25.8 22.9 13.0 45 7.7 ESE 20 28 11 15 1015.7 1012.1 0.0
12/03:30pm 28.2 26.5 7.4 27 11.5 W 6 20 3 11 1015.8 1012.2 0.0
12/03:00pm 27.4 26.4 8.8 31 10.5 W 4 9 2 5 1016.3 1012.6 0.0
12/02:30pm 26.9 24.3 9.3 33 10.0 SSW 13 19 7 10 1016.6 1012.9 0.0
12/02:00pm 28.0 25.6 10.2 33 10.3 WSW 13 20 7 11 1016.7 1013.0 0.0
12/01:30pm 28.1 27.6 12.5 38 9.4 W 7 15 4 8 1017.1 1013.5 0.0
12/01:00pm 25.8 23.8 11.6 41 8.3 SSW 13 19 7 10 1017.5 1013.8 0.0
12/12:30pm 26.8 25.6 11.7 39 8.9 NNE 9 17 5 9 1017.8 1014.1 0.0
12/12:00pm 25.7 25.3 12.5 44 7.9 SW 6 11 3 6 1018.3 1014.7 0.0
12/11:30am 25.5 24.7 13.0 46 7.5 N 9 15 5 8 1018.6 1015.0 0.0
12/11:00am 24.8 24.3 12.7 47 7.2 ENE 7 11 4 6 1019.0 1015.3 0.0
12/10:30am 23.1 23.6 14.9 60 5.0 W 6 9 3 5 1019.1 1015.4 0.0
12/10:00am 22.7 23.4 15.5 64 4.4 NW 6 7 3 4 1019.3 1015.7 0.0
12/09:30am 19.8 20.7 15.2 75 2.8 WNW 4 9 2 5 1019.3 1015.7 0.0
12/09:00am 18.3 18.4 15.6 84 1.6 WSW 9 13 5 7 1019.4 1015.8 3.0
12/08:30am 17.1 17.4 16.1 94 0.6 WSW 9 11 5 6 1019.2 1015.6 3.0
12/08:00am 16.1 16.6 15.6 97 0.3 SSW 7 9 4 5 1019.0 1015.3 3.0
12/07:30am 16.4 15.7 15.3 93 0.7 ENE 13 17 7 9 1018.4 1014.8 3.0
12/07:00am 15.6 15.9 15.0 96 0.4 E 7 13 4 7 1018.3 1014.7 3.0
12/06:30am 14.4 14.6 14.1 98 0.2 E 6 9 3 5 1018.0 1014.4 3.0
12/06:00am 14.4 14.0 14.1 98 0.2 ENE 9 11 5 6 1017.8 1014.1 2.8
12/05:30am 14.6 14.7 14.4 99 0.1 NE 7 9 4 5 1017.5 1013.8 2.8
12/05:00am 14.4 13.6 14.1 98 0.2 NE 11 13 6 7 1017.0 1013.4 2.8
12/04:30am 14.9 14.8 13.8 93 0.6 ENE 7 9 4 5 1017.1 1013.5 2.8
12/04:00am 15.8 16.2 15.2 96 0.4 ESE 7 9 4 5 1017.0 1013.4 2.8
12/03:30am 15.6 15.3 15.4 99 0.1 SE 11 13 6 7 1017.0 1013.4 2.8
12/03:00am 16.0 16.1 15.4 96 0.4 ESE 9 11 5 6 1017.3 1013.7 2.8
12/02:30am 15.4 17.1 15.2 99 0.1 CALM 0 0 0 0 1017.5 1013.8 2.8
12/02:00am 15.2 15.9 14.6 96 0.4 N 4 9 2 5 1017.3 1013.7 2.8
12/01:30am 16.0 16.0 15.2 95 0.5 W 9 13 5 7 1017.7 1014.0 2.8
12/01:00am 16.6 15.2 15.6 94 0.6 NNE 17 22 9 12 1017.1 1013.5 2.8
12/12:30am 17.2 15.8 16.9 98 0.2 SE 20 26 11 14 1018.1 1014.5 2.8
12/12:00am 17.4 15.7 15.7 90 1.0 SSE 19 24 10 13 1018.5 1014.9 2.0
 
Date/Time
EDT
Temp
°C
App
Temp
°C
Dew
Point
Rel
Hum
%
Delta-T
°C
Wind Press
QNH
hPa
Press
MSL
hPa
Rain
since 9 am
mm
Dir
 
Spd
km/h
Gust
km/h
Spd
kts
Gust
kts
11/11:30pm 17.6 16.2 14.5 82 1.8 SSE 15 20 8 11 1018.5 1014.9 2.0
11/11:00pm 18.2 17.0 14.1 77 2.4 ESE 13 19 7 10 1018.4 1014.8 2.0
11/10:30pm 17.6 18.5 12.9 74 2.7 CALM 0 0 0 0 1017.8 1014.1 2.0
11/10:00pm 17.8 16.9 12.5 71 3.0 E 9 11 5 6 1017.9 1014.2 2.0
11/09:30pm 18.2 16.9 12.4 69 3.3 SE 11 15 6 8 1017.6 1013.9 2.0
11/09:00pm 18.6 17.7 12.6 68 3.5 SSE 9 15 5 8 1016.9 1013.3 2.0
11/08:30pm 18.8 19.7 12.8 68 3.5 CALM 0 0 0 0 1016.6 1012.9 2.0
11/08:00pm 19.3 17.0 11.6 61 4.4 ENE 15 22 8 12 1016.2 1012.5 2.0
11/07:30pm 19.6 15.7 12.1 62 4.3 NE 24 32 13 17 1016.1 1012.4 2.0
11/07:00pm 20.1 19.6 13.8 67 3.7 N 9 15 5 8 1016.2 1012.5 2.0
11/06:30pm 20.5 18.8 13.7 65 4.0 ESE 15 20 8 11 1015.5 1011.8 2.0
11/06:00pm 21.5 19.1 15.3 68 3.8 ESE 22 30 12 16 1014.9 1011.2 1.8
11/05:50pm 21.9 20.3 16.6 72 3.3 SE 20 28 11 15 1015.2 1011.5 1.8
11/05:34pm 21.0 20.5 15.8 72 3.2 SSE 13 17 7 9 1015.6 1012.0 1.8
11/05:30pm 21.5 20.7 15.1 67 3.9 SSE 13 24 7 13 1015.6 1012.0 0.8
11/05:00pm 21.7 17.3 12.8 57 5.2 ENE 28 41 15 22 1014.2 1010.5 0.4
11/04:58pm 21.9 17.8 12.7 56 5.4 ENE 26 41 14 22 1014.3 1010.7 0.4
11/04:30pm 23.4 22.4 12.4 50 6.5 NNE 9 13 5 7 1014.3 1010.7 0.4
11/04:00pm 24.7 23.0 12.3 46 7.3 NNE 13 20 7 11 1014.3 1010.7 0.4
11/03:30pm 23.0 21.0 14.0 57 5.4 NNW 17 22 9 12 1014.7 1011.0 0.4
11/03:00pm 26.6 27.0 12.6 42 8.4 E 2 7 1 4 1015.0 1011.3 0.4

Other Formats:

Comma delimited format used in spreadsheet applications
http://www.bom.gov.au/fwo/IDN60801/IDN60801.94729.axf

JavaScript Object Notation format (JSON) in row-major order
http://www.bom.gov.au/fwo/IDN60801/IDN60801.94729.json